sensor_id;sensor_type;location;lat;lon;timestamp;P1;P2;P0
46885;PMS5003;32622;48.202;11.326;2023-12-29T00:01:39;2;2;
46885;PMS5003;32622;48.202;11.326;2023-12-29T00:03:41;2;2;
46885;PMS5003;32622;48.202;11.326;2023-12-29T00:05:43;2;2;
46885;PMS5003;32622;48.202;11.326;2023-12-29T00:07:45;2;2;
46885;PMS5003;32622;48.202;11.326;2023-12-29T00:09:47;2;2;
46885;PMS5003;32622;48.202;11.326;2023-12-29T00:11:50;2;2;
46885;PMS5003;32622;48.202;11.326;2023-12-29T00:13:52;2;2;
46885;PMS5003;32622;48.202;11.326;2023-12-29T00:15:54;2;2;
46885;PMS5003;32622;48.202;11.326;2023-12-29T00:17:57;2;2;
46885;PMS5003;32622;48.202;11.326;2023-12-29T00:19:59;2;2;
46885;PMS5003;32622;48.202;11.326;2023-12-29T00:22:01;2;2;
46885;PMS5003;32622;48.202;11.326;2023-12-29T00:24:04;2;2;
46885;PMS5003;32622;48.202;11.326;2023-12-29T00:26:06;2;2;
46885;PMS5003;32622;48.202;11.326;2023-12-29T00:28:09;2;2;
46885;PMS5003;32622;48.202;11.326;2023-12-29T00:30:11;2;2;
46885;PMS5003;32622;48.202;11.326;2023-12-29T00:32:13;2;2;
46885;PMS5003;32622;48.202;11.326;2023-12-29T00:34:15;2;2;
46885;PMS5003;32622;48.202;11.326;2023-12-29T00:36:18;2;2;
46885;PMS5003;32622;48.202;11.326;2023-12-29T00:38:21;2;2;
46885;PMS5003;32622;48.202;11.326;2023-12-29T00:40:23;2;2;
46885;PMS5003;32622;48.202;11.326;2023-12-29T00:42:25;2;2;
46885;PMS5003;32622;48.202;11.326;2023-12-29T00:44:28;2;2;
46885;PMS5003;32622;48.202;11.326;2023-12-29T00:46:30;2;2;
46885;PMS5003;32622;48.202;11.326;2023-12-29T00:48:32;2;2;
46885;PMS5003;32622;48.202;11.326;2023-12-29T00:50:34;2;2;
46885;PMS5003;32622;48.202;11.326;2023-12-29T00:52:36;3;2;
46885;PMS5003;32622;48.202;11.326;2023-12-29T00:54:39;3;2;
46885;PMS5003;32622;48.202;11.326;2023-12-29T00:56:42;3;2;
46885;PMS5003;32622;48.202;11.326;2023-12-29T00:58:49;3;2;
46885;PMS5003;32622;48.202;11.326;2023-12-29T01:00:52;3;2;
46885;PMS5003;32622;48.202;11.326;2023-12-29T01:02:54;3;2;
46885;PMS5003;32622;48.202;11.326;2023-12-29T01:04:56;2;1;
46885;PMS5003;32622;48.202;11.326;2023-12-29T01:06:58;2;1;
46885;PMS5003;32622;48.202;11.326;2023-12-29T01:09:00;2;1;
46885;PMS5003;32622;48.202;11.326;2023-12-29T01:11:02;2;1;
46885;PMS5003;32622;48.202;11.326;2023-12-29T01:13:05;3;2;
46885;PMS5003;32622;48.202;11.326;2023-12-29T01:15:07;3;2;
46885;PMS5003;32622;48.202;11.326;2023-12-29T01:17:10;3;2;
46885;PMS5003;32622;48.202;11.326;2023-12-29T01:19:12;3;2;
46885;PMS5003;32622;48.202;11.326;2023-12-29T01:21:14;3;2;
46885;PMS5003;32622;48.202;11.326;2023-12-29T01:23:16;3;2;
46885;PMS5003;32622;48.202;11.326;2023-12-29T01:25:18;3;2;
46885;PMS5003;32622;48.202;11.326;2023-12-29T01:27:20;3;2;
46885;PMS5003;32622;48.202;11.326;2023-12-29T01:29:22;3;2;
46885;PMS5003;32622;48.202;11.326;2023-12-29T01:31:28;3;2;
46885;PMS5003;32622;48.202;11.326;2023-12-29T01:33:30;3;2;
46885;PMS5003;32622;48.202;11.326;2023-12-29T01:35:32;3;2;
46885;PMS5003;32622;48.202;11.326;2023-12-29T01:37:34;3;2;
46885;PMS5003;32622;48.202;11.326;2023-12-29T01:39:37;3;2;
46885;PMS5003;32622;48.202;11.326;2023-12-29T01:41:39;3;2;
46885;PMS5003;32622;48.202;11.326;2023-12-29T01:44:00;3;2;
46885;PMS5003;32622;48.202;11.326;2023-12-29T01:46:19;3;2;
46885;PMS5003;32622;48.202;11.326;2023-12-29T01:48:21;3;1;
46885;PMS5003;32622;48.202;11.326;2023-12-29T01:50:24;3;1;
46885;PMS5003;32622;48.202;11.326;2023-12-29T01:52:27;3;1;
46885;PMS5003;32622;48.202;11.326;2023-12-29T01:54:30;2;2;
46885;PMS5003;32622;48.202;11.326;2023-12-29T01:56:35;2;2;
46885;PMS5003;32622;48.202;11.326;2023-12-29T01:58:37;2;2;
46885;PMS5003;32622;48.202;11.326;2023-12-29T02:00:39;2;2;
46885;PMS5003;32622;48.202;11.326;2023-12-29T02:02:42;2;2;
46885;PMS5003;32622;48.202;11.326;2023-12-29T02:04:45;2;2;
46885;PMS5003;32622;48.202;11.326;2023-12-29T02:06:47;2;2;
46885;PMS5003;32622;48.202;11.326;2023-12-29T02:08:50;2;2;
46885;PMS5003;32622;48.202;11.326;2023-12-29T02:10:52;2;2;
46885;PMS5003;32622;48.202;11.326;2023-12-29T02:12:55;2;2;
46885;PMS5003;32622;48.202;11.326;2023-12-29T02:14:57;2;2;
46885;PMS5003;32622;48.202;11.326;2023-12-29T02:17:01;2;2;
46885;PMS5003;32622;48.202;11.326;2023-12-29T02:19:13;2;2;
46885;PMS5003;32622;48.202;11.326;2023-12-29T02:21:25;2;2;
46885;PMS5003;32622;48.202;11.326;2023-12-29T02:23:28;2;2;
46885;PMS5003;32622;48.202;11.326;2023-12-29T02:25:30;1;1;
46885;PMS5003;32622;48.202;11.326;2023-12-29T02:27:35;1;1;
46885;PMS5003;32622;48.202;11.326;2023-12-29T02:29:46;1;1;
46885;PMS5003;32622;48.202;11.326;2023-12-29T02:31:54;1;1;
46885;PMS5003;32622;48.202;11.326;2023-12-29T02:34:01;1;1;
46885;PMS5003;32622;48.202;11.326;2023-12-29T02:36:07;1;1;
46885;PMS5003;32622;48.202;11.326;2023-12-29T02:38:11;2;2;
46885;PMS5003;32622;48.202;11.326;2023-12-29T02:40:14;2;2;
46885;PMS5003;32622;48.202;11.326;2023-12-29T02:42:17;2;2;
46885;PMS5003;32622;48.202;11.326;2023-12-29T02:44:19;2;2;
46885;PMS5003;32622;48.202;11.326;2023-12-29T02:46:21;2;2;
46885;PMS5003;32622;48.202;11.326;2023-12-29T02:48:23;2;2;
46885;PMS5003;32622;48.202;11.326;2023-12-29T02:50:25;2;2;
46885;PMS5003;32622;48.202;11.326;2023-12-29T02:52:28;2;2;
46885;PMS5003;32622;48.202;11.326;2023-12-29T02:54:30;2;2;
46885;PMS5003;32622;48.202;11.326;2023-12-29T02:56:32;1;1;
46885;PMS5003;32622;48.202;11.326;2023-12-29T02:58:34;1;1;
46885;PMS5003;32622;48.202;11.326;2023-12-29T03:00:36;1;1;
46885;PMS5003;32622;48.202;11.326;2023-12-29T03:02:38;1;1;
46885;PMS5003;32622;48.202;11.326;2023-12-29T03:04:40;1;1;
46885;PMS5003;32622;48.202;11.326;2023-12-29T03:06:42;1;1;
46885;PMS5003;32622;48.202;11.326;2023-12-29T03:08:45;1;1;
46885;PMS5003;32622;48.202;11.326;2023-12-29T03:10:47;1;1;
46885;PMS5003;32622;48.202;11.326;2023-12-29T03:12:49;1;1;
46885;PMS5003;32622;48.202;11.326;2023-12-29T03:14:51;1;1;
46885;PMS5003;32622;48.202;11.326;2023-12-29T03:16:53;1;1;
46885;PMS5003;32622;48.202;11.326;2023-12-29T03:18:55;1;1;
46885;PMS5003;32622;48.202;11.326;2023-12-29T03:20:57;1;1;
46885;PMS5003;32622;48.202;11.326;2023-12-29T03:22:59;1;1;
46885;PMS5003;32622;48.202;11.326;2023-12-29T03:25:01;1;1;
46885;PMS5003;32622;48.202;11.326;2023-12-29T03:27:04;2;2;
46885;PMS5003;32622;48.202;11.326;2023-12-29T03:29:06;2;2;
46885;PMS5003;32622;48.202;11.326;2023-12-29T03:31:08;2;2;
46885;PMS5003;32622;48.202;11.326;2023-12-29T03:33:10;1;1;
46885;PMS5003;32622;48.202;11.326;2023-12-29T03:35:13;2;2;
46885;PMS5003;32622;48.202;11.326;2023-12-29T03:37:15;2;2;
46885;PMS5003;32622;48.202;11.326;2023-12-29T03:39:17;2;2;
46885;PMS5003;32622;48.202;11.326;2023-12-29T03:41:19;2;2;
46885;PMS5003;32622;48.202;11.326;2023-12-29T03:43:21;2;2;
46885;PMS5003;32622;48.202;11.326;2023-12-29T03:45:23;2;2;
46885;PMS5003;32622;48.202;11.326;2023-12-29T03:47:26;2;2;
46885;PMS5003;32622;48.202;11.326;2023-12-29T03:49:28;2;2;
46885;PMS5003;32622;48.202;11.326;2023-12-29T03:51:30;2;2;
46885;PMS5003;32622;48.202;11.326;2023-12-29T03:53:32;2;2;
46885;PMS5003;32622;48.202;11.326;2023-12-29T03:55:34;2;2;
46885;PMS5003;32622;48.202;11.326;2023-12-29T03:57:36;2;2;
46885;PMS5003;32622;48.202;11.326;2023-12-29T03:59:38;2;2;
46885;PMS5003;32622;48.202;11.326;2023-12-29T04:01:40;2;2;
46885;PMS5003;32622;48.202;11.326;2023-12-29T04:03:43;3;3;
46885;PMS5003;32622;48.202;11.326;2023-12-29T04:05:45;3;3;
46885;PMS5003;32622;48.202;11.326;2023-12-29T04:07:47;3;3;
46885;PMS5003;32622;48.202;11.326;2023-12-29T04:09:49;3;3;
46885;PMS5003;32622;48.202;11.326;2023-12-29T04:11:52;3;3;
46885;PMS5003;32622;48.202;11.326;2023-12-29T04:13:54;3;3;
46885;PMS5003;32622;48.202;11.326;2023-12-29T04:15:56;3;3;
46885;PMS5003;32622;48.202;11.326;2023-12-29T04:17:58;3;3;
46885;PMS5003;32622;48.202;11.326;2023-12-29T04:20:00;3;3;
46885;PMS5003;32622;48.202;11.326;2023-12-29T04:22:02;3;3;
46885;PMS5003;32622;48.202;11.326;2023-12-29T04:24:05;3;3;
46885;PMS5003;32622;48.202;11.326;2023-12-29T04:26:07;3;3;
46885;PMS5003;32622;48.202;11.326;2023-12-29T04:28:10;2;2;
46885;PMS5003;32622;48.202;11.326;2023-12-29T04:30:12;2;2;
46885;PMS5003;32622;48.202;11.326;2023-12-29T04:32:14;1;1;
46885;PMS5003;32622;48.202;11.326;2023-12-29T04:34:16;1;1;
46885;PMS5003;32622;48.202;11.326;2023-12-29T04:36:18;1;1;
46885;PMS5003;32622;48.202;11.326;2023-12-29T04:38:21;2;2;
46885;PMS5003;32622;48.202;11.326;2023-12-29T04:40:23;1;1;
46885;PMS5003;32622;48.202;11.326;2023-12-29T04:42:25;1;1;
46885;PMS5003;32622;48.202;11.326;2023-12-29T04:44:27;1;1;
46885;PMS5003;32622;48.202;11.326;2023-12-29T04:46:29;2;2;
46885;PMS5003;32622;48.202;11.326;2023-12-29T04:48:31;2;2;
46885;PMS5003;32622;48.202;11.326;2023-12-29T04:50:33;2;2;
46885;PMS5003;32622;48.202;11.326;2023-12-29T04:52:36;1;1;
46885;PMS5003;32622;48.202;11.326;2023-12-29T04:54:38;1;1;
46885;PMS5003;32622;48.202;11.326;2023-12-29T04:56:40;1;1;
46885;PMS5003;32622;48.202;11.326;2023-12-29T04:58:42;1;1;
46885;PMS5003;32622;48.202;11.326;2023-12-29T05:00:44;1;1;
46885;PMS5003;32622;48.202;11.326;2023-12-29T05:02:46;1;1;
46885;PMS5003;32622;48.202;11.326;2023-12-29T05:04:48;1;1;
46885;PMS5003;32622;48.202;11.326;2023-12-29T05:06:50;0;0;
46885;PMS5003;32622;48.202;11.326;2023-12-29T05:08:53;0;0;
46885;PMS5003;32622;48.202;11.326;2023-12-29T05:10:55;0;0;
46885;PMS5003;32622;48.202;11.326;2023-12-29T05:12:57;1;1;
46885;PMS5003;32622;48.202;11.326;2023-12-29T05:14:59;1;1;
46885;PMS5003;32622;48.202;11.326;2023-12-29T05:17:01;1;1;
46885;PMS5003;32622;48.202;11.326;2023-12-29T05:19:03;1;1;
46885;PMS5003;32622;48.202;11.326;2023-12-29T05:21:06;0;0;
46885;PMS5003;32622;48.202;11.326;2023-12-29T05:23:16;0;0;
46885;PMS5003;32622;48.202;11.326;2023-12-29T05:25:18;0;0;
46885;PMS5003;32622;48.202;11.326;2023-12-29T05:27:20;0;0;
46885;PMS5003;32622;48.202;11.326;2023-12-29T05:29:22;1;1;
46885;PMS5003;32622;48.202;11.326;2023-12-29T05:31:24;1;1;
46885;PMS5003;32622;48.202;11.326;2023-12-29T05:33:26;1;1;
46885;PMS5003;32622;48.202;11.326;2023-12-29T05:35:28;1;1;
46885;PMS5003;32622;48.202;11.326;2023-12-29T05:37:30;1;1;
46885;PMS5003;32622;48.202;11.326;2023-12-29T05:39:33;1;1;
46885;PMS5003;32622;48.202;11.326;2023-12-29T05:41:35;2;2;
46885;PMS5003;32622;48.202;11.326;2023-12-29T05:43:37;2;2;
46885;PMS5003;32622;48.202;11.326;2023-12-29T05:45:39;2;2;
46885;PMS5003;32622;48.202;11.326;2023-12-29T05:47:42;1;1;
46885;PMS5003;32622;48.202;11.326;2023-12-29T05:49:44;1;1;
46885;PMS5003;32622;48.202;11.326;2023-12-29T05:51:46;1;1;
46885;PMS5003;32622;48.202;11.326;2023-12-29T05:53:49;1;1;
46885;PMS5003;32622;48.202;11.326;2023-12-29T05:55:51;1;1;
46885;PMS5003;32622;48.202;11.326;2023-12-29T05:57:53;1;1;
46885;PMS5003;32622;48.202;11.326;2023-12-29T05:59:55;1;1;
46885;PMS5003;32622;48.202;11.326;2023-12-29T06:01:58;2;2;
46885;PMS5003;32622;48.202;11.326;2023-12-29T06:04:00;2;2;
46885;PMS5003;32622;48.202;11.326;2023-12-29T06:06:02;2;2;
46885;PMS5003;32622;48.202;11.326;2023-12-29T06:08:05;2;2;
46885;PMS5003;32622;48.202;11.326;2023-12-29T06:10:08;2;2;
46885;PMS5003;32622;48.202;11.326;2023-12-29T06:12:10;2;2;
46885;PMS5003;32622;48.202;11.326;2023-12-29T06:14:12;2;2;
46885;PMS5003;32622;48.202;11.326;2023-12-29T06:16:18;2;2;
46885;PMS5003;32622;48.202;11.326;2023-12-29T06:18:21;2;2;
46885;PMS5003;32622;48.202;11.326;2023-12-29T06:20:23;2;2;
46885;PMS5003;32622;48.202;11.326;2023-12-29T06:22:26;2;2;
46885;PMS5003;32622;48.202;11.326;2023-12-29T06:24:29;3;2;
46885;PMS5003;32622;48.202;11.326;2023-12-29T06:26:31;3;2;
46885;PMS5003;32622;48.202;11.326;2023-12-29T06:28:33;3;2;
46885;PMS5003;32622;48.202;11.326;2023-12-29T06:30:35;3;2;
46885;PMS5003;32622;48.202;11.326;2023-12-29T06:32:37;3;2;
46885;PMS5003;32622;48.202;11.326;2023-12-29T06:34:40;3;2;
46885;PMS5003;32622;48.202;11.326;2023-12-29T06:36:42;3;2;
46885;PMS5003;32622;48.202;11.326;2023-12-29T06:38:44;3;2;
46885;PMS5003;32622;48.202;11.326;2023-12-29T06:40:46;3;2;
46885;PMS5003;32622;48.202;11.326;2023-12-29T06:42:49;3;2;
46885;PMS5003;32622;48.202;11.326;2023-12-29T06:44:51;3;2;
46885;PMS5003;32622;48.202;11.326;2023-12-29T06:46:53;3;2;
46885;PMS5003;32622;48.202;11.326;2023-12-29T06:48:55;3;2;
46885;PMS5003;32622;48.202;11.326;2023-12-29T06:50:58;3;2;
46885;PMS5003;32622;48.202;11.326;2023-12-29T06:53:02;3;2;
46885;PMS5003;32622;48.202;11.326;2023-12-29T06:55:05;3;2;
46885;PMS5003;32622;48.202;11.326;2023-12-29T06:57:08;3;2;
46885;PMS5003;32622;48.202;11.326;2023-12-29T06:59:11;3;2;
46885;PMS5003;32622;48.202;11.326;2023-12-29T07:01:13;3;2;
46885;PMS5003;32622;48.202;11.326;2023-12-29T07:03:15;3;2;
46885;PMS5003;32622;48.202;11.326;2023-12-29T07:05:17;3;2;
46885;PMS5003;32622;48.202;11.326;2023-12-29T07:07:20;3;2;
46885;PMS5003;32622;48.202;11.326;2023-12-29T07:09:22;3;2;
46885;PMS5003;32622;48.202;11.326;2023-12-29T07:11:24;3;2;
46885;PMS5003;32622;48.202;11.326;2023-12-29T07:13:26;3;2;
46885;PMS5003;32622;48.202;11.326;2023-12-29T07:15:29;3;2;
46885;PMS5003;32622;48.202;11.326;2023-12-29T07:17:31;3;2;
46885;PMS5003;32622;48.202;11.326;2023-12-29T07:19:33;3;2;
46885;PMS5003;32622;48.202;11.326;2023-12-29T07:21:35;3;2;
46885;PMS5003;32622;48.202;11.326;2023-12-29T07:23:38;3;2;
46885;PMS5003;32622;48.202;11.326;2023-12-29T07:25:40;2;2;
46885;PMS5003;32622;48.202;11.326;2023-12-29T07:27:42;2;2;
46885;PMS5003;32622;48.202;11.326;2023-12-29T07:29:44;2;2;
46885;PMS5003;32622;48.202;11.326;2023-12-29T07:31:47;2;2;
46885;PMS5003;32622;48.202;11.326;2023-12-29T07:33:49;2;2;
46885;PMS5003;32622;48.202;11.326;2023-12-29T07:35:51;2;2;
46885;PMS5003;32622;48.202;11.326;2023-12-29T07:37:53;2;2;
46885;PMS5003;32622;48.202;11.326;2023-12-29T07:39:55;2;2;
46885;PMS5003;32622;48.202;11.326;2023-12-29T07:41:58;2;2;
46885;PMS5003;32622;48.202;11.326;2023-12-29T07:44:00;2;2;
46885;PMS5003;32622;48.202;11.326;2023-12-29T07:46:02;2;2;
46885;PMS5003;32622;48.202;11.326;2023-12-29T07:48:05;2;2;
46885;PMS5003;32622;48.202;11.326;2023-12-29T07:50:08;2;2;
46885;PMS5003;32622;48.202;11.326;2023-12-29T07:52:10;2;2;
46885;PMS5003;32622;48.202;11.326;2023-12-29T07:54:12;2;2;
46885;PMS5003;32622;48.202;11.326;2023-12-29T07:56:14;2;2;
46885;PMS5003;32622;48.202;11.326;2023-12-29T07:58:17;2;2;
46885;PMS5003;32622;48.202;11.326;2023-12-29T08:00:19;2;2;
46885;PMS5003;32622;48.202;11.326;2023-12-29T08:02:21;2;2;
46885;PMS5003;32622;48.202;11.326;2023-12-29T08:04:23;2;2;
46885;PMS5003;32622;48.202;11.326;2023-12-29T08:06:25;2;2;
46885;PMS5003;32622;48.202;11.326;2023-12-29T08:08:27;2;2;
46885;PMS5003;32622;48.202;11.326;2023-12-29T08:10:30;2;2;
46885;PMS5003;32622;48.202;11.326;2023-12-29T08:12:32;2;2;
46885;PMS5003;32622;48.202;11.326;2023-12-29T08:14:34;1;1;
46885;PMS5003;32622;48.202;11.326;2023-12-29T08:16:37;1;1;
46885;PMS5003;32622;48.202;11.326;2023-12-29T08:18:40;1;1;
46885;PMS5003;32622;48.202;11.326;2023-12-29T08:20:42;1;1;
46885;PMS5003;32622;48.202;11.326;2023-12-29T08:22:44;1;1;
46885;PMS5003;32622;48.202;11.326;2023-12-29T08:24:46;1;1;
46885;PMS5003;32622;48.202;11.326;2023-12-29T08:26:49;1;1;
46885;PMS5003;32622;48.202;11.326;2023-12-29T08:28:51;1;1;
46885;PMS5003;32622;48.202;11.326;2023-12-29T08:30:53;1;1;
46885;PMS5003;32622;48.202;11.326;2023-12-29T08:32:55;2;2;
46885;PMS5003;32622;48.202;11.326;2023-12-29T08:34:57;2;2;
46885;PMS5003;32622;48.202;11.326;2023-12-29T08:36:59;2;2;
46885;PMS5003;32622;48.202;11.326;2023-12-29T08:39:02;1;1;
46885;PMS5003;32622;48.202;11.326;2023-12-29T08:41:04;1;1;
46885;PMS5003;32622;48.202;11.326;2023-12-29T08:43:06;1;1;
46885;PMS5003;32622;48.202;11.326;2023-12-29T08:45:08;1;1;
46885;PMS5003;32622;48.202;11.326;2023-12-29T08:47:11;1;1;
46885;PMS5003;32622;48.202;11.326;2023-12-29T08:49:13;1;1;
46885;PMS5003;32622;48.202;11.326;2023-12-29T08:51:15;1;1;
46885;PMS5003;32622;48.202;11.326;2023-12-29T08:53:17;1;1;
46885;PMS5003;32622;48.202;11.326;2023-12-29T08:55:19;1;1;
46885;PMS5003;32622;48.202;11.326;2023-12-29T08:57:22;1;1;
46885;PMS5003;32622;48.202;11.326;2023-12-29T08:59:24;0;0;
46885;PMS5003;32622;48.202;11.326;2023-12-29T09:01:26;0;0;
46885;PMS5003;32622;48.202;11.326;2023-12-29T09:03:28;0;0;
46885;PMS5003;32622;48.202;11.326;2023-12-29T09:05:30;1;1;
46885;PMS5003;32622;48.202;11.326;2023-12-29T09:07:32;1;1;
46885;PMS5003;32622;48.202;11.326;2023-12-29T09:09:34;2;2;
46885;PMS5003;32622;48.202;11.326;2023-12-29T09:11:37;2;2;
46885;PMS5003;32622;48.202;11.326;2023-12-29T09:13:39;2;2;
46885;PMS5003;32622;48.202;11.326;2023-12-29T09:15:41;2;2;
46885;PMS5003;32622;48.202;11.326;2023-12-29T09:17:43;2;2;
46885;PMS5003;32622;48.202;11.326;2023-12-29T09:19:45;1;1;
46885;PMS5003;32622;48.202;11.326;2023-12-29T09:21:47;1;1;
46885;PMS5003;32622;48.202;11.326;2023-12-29T09:23:49;1;1;
46885;PMS5003;32622;48.202;11.326;2023-12-29T09:25:52;1;1;
46885;PMS5003;32622;48.202;11.326;2023-12-29T09:27:54;1;1;
46885;PMS5003;32622;48.202;11.326;2023-12-29T09:29:56;1;1;
46885;PMS5003;32622;48.202;11.326;2023-12-29T09:31:58;1;1;
46885;PMS5003;32622;48.202;11.326;2023-12-29T09:34:00;2;2;
46885;PMS5003;32622;48.202;11.326;2023-12-29T09:36:02;2;2;
46885;PMS5003;32622;48.202;11.326;2023-12-29T09:38:05;2;2;
46885;PMS5003;32622;48.202;11.326;2023-12-29T09:40:08;2;2;
46885;PMS5003;32622;48.202;11.326;2023-12-29T09:42:13;2;2;
46885;PMS5003;32622;48.202;11.326;2023-12-29T09:44:21;2;2;
46885;PMS5003;32622;48.202;11.326;2023-12-29T09:46:23;2;2;
46885;PMS5003;32622;48.202;11.326;2023-12-29T09:48:28;2;2;
46885;PMS5003;32622;48.202;11.326;2023-12-29T09:50:33;2;2;
46885;PMS5003;32622;48.202;11.326;2023-12-29T09:52:36;2;2;
46885;PMS5003;32622;48.202;11.326;2023-12-29T09:54:39;2;2;
46885;PMS5003;32622;48.202;11.326;2023-12-29T09:56:43;2;2;
46885;PMS5003;32622;48.202;11.326;2023-12-29T09:58:46;2;2;
46885;PMS5003;32622;48.202;11.326;2023-12-29T10:00:49;2;2;
46885;PMS5003;32622;48.202;11.326;2023-12-29T10:02:52;2;2;
46885;PMS5003;32622;48.202;11.326;2023-12-29T10:04:55;2;2;
46885;PMS5003;32622;48.202;11.326;2023-12-29T10:06:58;2;2;
46885;PMS5003;32622;48.202;11.326;2023-12-29T10:09:03;2;2;
46885;PMS5003;32622;48.202;11.326;2023-12-29T10:11:08;2;2;
46885;PMS5003;32622;48.202;11.326;2023-12-29T10:13:13;2;2;
46885;PMS5003;32622;48.202;11.326;2023-12-29T10:15:17;2;2;
46885;PMS5003;32622;48.202;11.326;2023-12-29T10:17:25;2;2;
46885;PMS5003;32622;48.202;11.326;2023-12-29T10:19:37;2;2;
46885;PMS5003;32622;48.202;11.326;2023-12-29T10:21:43;2;2;
46885;PMS5003;32622;48.202;11.326;2023-12-29T10:23:53;2;2;
46885;PMS5003;32622;48.202;11.326;2023-12-29T10:25:59;2;2;
46885;PMS5003;32622;48.202;11.326;2023-12-29T10:28:02;2;2;
46885;PMS5003;32622;48.202;11.326;2023-12-29T10:30:05;3;2;
46885;PMS5003;32622;48.202;11.326;2023-12-29T10:32:12;3;2;
46885;PMS5003;32622;48.202;11.326;2023-12-29T10:34:17;3;2;
46885;PMS5003;32622;48.202;11.326;2023-12-29T10:36:20;3;2;
46885;PMS5003;32622;48.202;11.326;2023-12-29T10:38:22;3;2;
46885;PMS5003;32622;48.202;11.326;2023-12-29T10:40:24;3;2;
46885;PMS5003;32622;48.202;11.326;2023-12-29T10:42:26;3;2;
46885;PMS5003;32622;48.202;11.326;2023-12-29T10:44:28;3;2;
46885;PMS5003;32622;48.202;11.326;2023-12-29T10:46:31;3;2;
46885;PMS5003;32622;48.202;11.326;2023-12-29T10:48:33;3;2;
46885;PMS5003;32622;48.202;11.326;2023-12-29T10:50:42;3;2;
46885;PMS5003;32622;48.202;11.326;2023-12-29T10:52:45;3;2;
46885;PMS5003;32622;48.202;11.326;2023-12-29T10:54:47;3;2;
46885;PMS5003;32622;48.202;11.326;2023-12-29T10:57:00;3;2;
46885;PMS5003;32622;48.202;11.326;2023-12-29T10:59:03;3;2;
46885;PMS5003;32622;48.202;11.326;2023-12-29T11:01:06;3;2;
46885;PMS5003;32622;48.202;11.326;2023-12-29T11:03:15;3;2;
46885;PMS5003;32622;48.202;11.326;2023-12-29T11:05:19;3;2;
46885;PMS5003;32622;48.202;11.326;2023-12-29T11:07:33;4;3;
46885;PMS5003;32622;48.202;11.326;2023-12-29T11:09:36;4;3;
46885;PMS5003;32622;48.202;11.326;2023-12-29T11:11:39;4;3;
46885;PMS5003;32622;48.202;11.326;2023-12-29T11:13:43;4;3;
46885;PMS5003;32622;48.202;11.326;2023-12-29T11:15:47;4;3;
46885;PMS5003;32622;48.202;11.326;2023-12-29T11:17:50;4;3;
46885;PMS5003;32622;48.202;11.326;2023-12-29T11:19:54;4;3;
46885;PMS5003;32622;48.202;11.326;2023-12-29T11:21:56;4;3;
46885;PMS5003;32622;48.202;11.326;2023-12-29T11:23:59;4;3;
46885;PMS5003;32622;48.202;11.326;2023-12-29T11:26:01;4;3;
46885;PMS5003;32622;48.202;11.326;2023-12-29T11:28:05;4;3;
46885;PMS5003;32622;48.202;11.326;2023-12-29T11:30:10;4;3;
46885;PMS5003;32622;48.202;11.326;2023-12-29T11:32:16;3;3;
46885;PMS5003;32622;48.202;11.326;2023-12-29T11:34:23;3;3;
46885;PMS5003;32622;48.202;11.326;2023-12-29T11:36:32;3;3;
46885;PMS5003;32622;48.202;11.326;2023-12-29T11:38:43;3;3;
46885;PMS5003;32622;48.202;11.326;2023-12-29T11:40:54;3;3;
46885;PMS5003;32622;48.202;11.326;2023-12-29T11:43:02;3;3;
46885;PMS5003;32622;48.202;11.326;2023-12-29T11:45:28;3;3;
46885;PMS5003;32622;48.202;11.326;2023-12-29T11:47:34;3;3;
46885;PMS5003;32622;48.202;11.326;2023-12-29T11:49:57;3;3;
46885;PMS5003;32622;48.202;11.326;2023-12-29T11:52:00;3;3;
46885;PMS5003;32622;48.202;11.326;2023-12-29T11:54:02;3;3;
46885;PMS5003;32622;48.202;11.326;2023-12-29T11:56:06;3;3;
46885;PMS5003;32622;48.202;11.326;2023-12-29T11:58:24;3;3;
46885;PMS5003;32622;48.202;11.326;2023-12-29T12:00:44;3;3;
46885;PMS5003;32622;48.202;11.326;2023-12-29T12:02:47;3;3;
46885;PMS5003;32622;48.202;11.326;2023-12-29T12:04:49;4;3;
46885;PMS5003;32622;48.202;11.326;2023-12-29T12:06:51;4;3;
46885;PMS5003;32622;48.202;11.326;2023-12-29T12:08:54;4;3;
46885;PMS5003;32622;48.202;11.326;2023-12-29T12:13:48;5;4;
46885;PMS5003;32622;48.202;11.326;2023-12-29T12:15:50;5;4;
46885;PMS5003;32622;48.202;11.326;2023-12-29T12:17:53;6;4;
46885;PMS5003;32622;48.202;11.326;2023-12-29T12:19:59;6;4;
46885;PMS5003;32622;48.202;11.326;2023-12-29T12:22:03;6;4;
46885;PMS5003;32622;48.202;11.326;2023-12-29T12:24:07;6;5;
46885;PMS5003;32622;48.202;11.326;2023-12-29T12:26:10;6;5;
46885;PMS5003;32622;48.202;11.326;2023-12-29T12:28:13;6;5;
46885;PMS5003;32622;48.202;11.326;2023-12-29T12:30:18;6;5;
46885;PMS5003;32622;48.202;11.326;2023-12-29T12:32:21;6;5;
46885;PMS5003;32622;48.202;11.326;2023-12-29T12:34:23;6;5;
46885;PMS5003;32622;48.202;11.326;2023-12-29T12:36:26;7;5;
46885;PMS5003;32622;48.202;11.326;2023-12-29T12:38:28;7;5;
46885;PMS5003;32622;48.202;11.326;2023-12-29T12:40:30;7;5;
46885;PMS5003;32622;48.202;11.326;2023-12-29T12:42:32;7;5;
46885;PMS5003;32622;48.202;11.326;2023-12-29T12:44:41;7;5;
46885;PMS5003;32622;48.202;11.326;2023-12-29T12:46:49;7;5;
46885;PMS5003;32622;48.202;11.326;2023-12-29T12:48:52;7;5;
46885;PMS5003;32622;48.202;11.326;2023-12-29T12:50:55;7;5;
46885;PMS5003;32622;48.202;11.326;2023-12-29T12:52:57;7;5;
46885;PMS5003;32622;48.202;11.326;2023-12-29T12:54:59;7;5;
46885;PMS5003;32622;48.202;11.326;2023-12-29T12:57:03;7;5;
46885;PMS5003;32622;48.202;11.326;2023-12-29T12:59:05;7;5;
46885;PMS5003;32622;48.202;11.326;2023-12-29T13:01:07;7;5;
46885;PMS5003;32622;48.202;11.326;2023-12-29T13:03:10;7;5;
46885;PMS5003;32622;48.202;11.326;2023-12-29T13:05:14;7;5;
46885;PMS5003;32622;48.202;11.326;2023-12-29T13:07:17;5;4;
46885;PMS5003;32622;48.202;11.326;2023-12-29T13:09:20;5;4;
46885;PMS5003;32622;48.202;11.326;2023-12-29T13:11:22;5;4;
46885;PMS5003;32622;48.202;11.326;2023-12-29T13:13:34;5;4;
46885;PMS5003;32622;48.202;11.326;2023-12-29T13:15:44;5;4;
46885;PMS5003;32622;48.202;11.326;2023-12-29T13:17:49;5;4;
46885;PMS5003;32622;48.202;11.326;2023-12-29T13:19:56;4;3;
46885;PMS5003;32622;48.202;11.326;2023-12-29T13:21:58;4;3;
46885;PMS5003;32622;48.202;11.326;2023-12-29T13:24:03;4;3;
46885;PMS5003;32622;48.202;11.326;2023-12-29T13:26:06;4;3;
46885;PMS5003;32622;48.202;11.326;2023-12-29T13:28:10;4;3;
46885;PMS5003;32622;48.202;11.326;2023-12-29T13:30:13;4;3;
46885;PMS5003;32622;48.202;11.326;2023-12-29T13:32:16;4;3;
46885;PMS5003;32622;48.202;11.326;2023-12-29T13:34:22;4;3;
46885;PMS5003;32622;48.202;11.326;2023-12-29T13:36:34;4;3;
46885;PMS5003;32622;48.202;11.326;2023-12-29T13:38:41;2;2;
46885;PMS5003;32622;48.202;11.326;2023-12-29T13:40:53;2;2;
46885;PMS5003;32622;48.202;11.326;2023-12-29T13:42:58;2;2;
46885;PMS5003;32622;48.202;11.326;2023-12-29T13:45:04;4;3;
46885;PMS5003;32622;48.202;11.326;2023-12-29T13:47:09;4;3;
46885;PMS5003;32622;48.202;11.326;2023-12-29T13:49:12;4;3;
46885;PMS5003;32622;48.202;11.326;2023-12-29T13:51:15;3;2;
46885;PMS5003;32622;48.202;11.326;2023-12-29T13:53:17;3;2;
46885;PMS5003;32622;48.202;11.326;2023-12-29T13:55:21;3;2;